createdAt,value
2023-05-20T03:29:59.666Z,99061.34
2023-05-20T03:32:27.186Z,99068.23
2023-05-20T03:34:54.750Z,99068.51
2023-05-20T03:37:21.796Z,99071.99
2023-05-20T03:39:48.826Z,99077.56
2023-05-20T03:42:16.212Z,99077.89
2023-05-20T03:44:43.184Z,99079.62
2023-05-20T03:47:10.175Z,99077.38
2023-05-20T03:49:37.182Z,99078.48
2023-05-20T03:52:04.314Z,99079.20
2023-05-20T03:54:31.799Z,99083.46
2023-05-20T03:57:01.345Z,99085.60
2023-05-20T03:59:29.194Z,99083.92
2023-05-20T04:01:59.921Z,99082.08
2023-05-20T04:04:26.988Z,99081.22
2023-05-20T04:06:54.673Z,99080.22
2023-05-20T04:09:22.408Z,99079.76
2023-05-20T04:11:49.631Z,99076.75
2023-05-20T04:14:19.052Z,99075.86
2023-05-20T04:16:46.623Z,99076.09
2023-05-20T04:19:13.560Z,99078.13
2023-05-20T04:21:44.467Z,99081.71
2023-05-20T04:24:12.365Z,99077.23
2023-05-20T04:26:40.183Z,99078.68
2023-05-20T04:29:07.411Z,99084.41
2023-05-20T04:31:35.227Z,99079.45
2023-05-20T04:34:03.065Z,99082.27
2023-05-20T04:36:30.877Z,99082.70
2023-05-20T04:39:02.469Z,99086.83
2023-05-20T04:41:29.911Z,99088.85
2023-05-20T04:44:01.871Z,99085.80
2023-05-20T04:46:29.084Z,99084.24
2023-05-20T04:48:56.252Z,99087.25
2023-05-20T04:51:23.182Z,99088.23
2023-05-20T04:53:52.225Z,99086.32
2023-05-20T04:56:19.092Z,99086.98
2023-05-20T04:58:46.865Z,99085.46
2023-05-20T05:01:13.954Z,99084.79
2023-05-20T05:03:41.957Z,99083.98
2023-05-20T05:06:09.414Z,99086.09
2023-05-20T05:08:36.533Z,99085.48
2023-05-20T05:11:06.580Z,99088.14
2023-05-20T05:13:33.717Z,99089.88
2023-05-20T05:16:01.503Z,99090.10
2023-05-20T05:18:29.451Z,99085.73
2023-05-20T05:21:03.498Z,99087.27
2023-05-20T05:23:31.217Z,99087.34
2023-05-20T05:25:59.301Z,99086.52
2023-05-20T05:28:26.268Z,99087.05
2023-05-20T05:30:55.462Z,99088.03
2023-05-20T05:33:22.587Z,99090.01
2023-05-20T05:35:50.043Z,99090.09
2023-05-20T05:38:17.295Z,99097.09
2023-05-20T05:40:44.511Z,99099.73
2023-05-20T05:43:11.513Z,99099.83
2023-05-20T05:45:39.274Z,99101.64
2023-05-20T05:48:06.277Z,99102.14
2023-05-20T05:50:33.264Z,99096.84
2023-05-20T05:53:00.327Z,99097.90
2023-05-20T05:55:27.648Z,99097.86
2023-05-20T05:57:56.403Z,99098.88
2023-05-20T06:00:26.202Z,99099.75
2023-05-20T06:02:54.807Z,99099.77
2023-05-20T06:05:29.790Z,99094.36
2023-05-20T06:07:57.800Z,99093.63
2023-05-20T06:10:25.954Z,99097.75
2023-05-20T06:12:53.043Z,99099.73
2023-05-20T06:15:23.189Z,99097.54
2023-05-20T06:17:50.955Z,99094.48
2023-05-20T06:20:18.164Z,99095.15
2023-05-20T06:22:45.220Z,99095.70
2023-05-20T06:25:14.821Z,99098.86
2023-05-20T06:27:42.262Z,99099.22
2023-05-20T06:30:12.537Z,99103.17
2023-05-20T06:32:39.701Z,99100.98
2023-05-20T06:35:09.546Z,99100.73
2023-05-20T06:37:37.116Z,99096.22
2023-05-20T06:40:05.138Z,99090.38
2023-05-20T06:42:32.868Z,99087.91
2023-05-20T06:45:04.633Z,99084.33
2023-05-20T06:47:38.402Z,99080.13
2023-05-20T06:50:06.076Z,99079.94
2023-05-20T06:52:33.131Z,99080.95
2023-05-20T06:55:00.308Z,99088.70
2023-05-20T06:57:27.246Z,99089.16
2023-05-20T06:59:54.216Z,99089.56
2023-05-20T07:02:21.942Z,99090.19
2023-05-20T07:04:49.462Z,99090.33
2023-05-20T07:07:17.420Z,99094.65
2023-05-20T07:09:46.772Z,99097.49
2023-05-20T07:12:13.848Z,99092.97
2023-05-20T07:14:40.985Z,99093.71
2023-05-20T07:17:07.948Z,99093.20
2023-05-20T07:19:34.932Z,99092.58
2023-05-20T07:22:02.395Z,99088.16
2023-05-20T07:24:43.243Z,99084.84
2023-05-20T07:27:10.520Z,99087.55
2023-05-20T07:29:38.056Z,99089.75
2023-05-20T07:32:08.434Z,99084.79
2023-05-20T07:34:35.664Z,99081.67
2023-05-20T07:37:02.579Z,99085.83
2023-05-20T07:39:29.590Z,99083.09
2023-05-20T07:41:56.643Z,99087.89
2023-05-20T07:44:24.396Z,99088.65
2023-05-20T07:46:52.724Z,99084.75
2023-05-20T07:49:20.632Z,99084.41
2023-05-20T07:51:48.084Z,99087.92
2023-05-20T07:54:16.375Z,99087.35
2023-05-20T07:56:46.380Z,99090.25
2023-05-20T07:59:14.050Z,99089.41
2023-05-20T08:01:45.841Z,99085.92
2023-05-20T08:04:14.434Z,99089.16
2023-05-20T08:06:42.246Z,99083.73
2023-05-20T08:09:11.913Z,99082.95
2023-05-20T08:11:41.267Z,99077.98
2023-05-20T08:14:08.368Z,99076.42
2023-05-20T08:16:39.136Z,99077.59
2023-05-20T08:19:06.365Z,99077.19
2023-05-20T08:21:33.463Z,99078.57
2023-05-20T08:24:00.935Z,99078.52
2023-05-20T08:26:28.177Z,99076.64
2023-05-20T08:28:55.248Z,99074.83
2023-05-20T08:31:22.793Z,99077.37
2023-05-20T08:33:50.942Z,99077.45
2023-05-20T08:36:19.625Z,99077.80
2023-05-20T08:38:46.686Z,99080.02
2023-05-20T08:41:13.654Z,99076.16
2023-05-20T08:43:41.820Z,99078.98
2023-05-20T08:46:09.138Z,99078.73
2023-05-20T08:48:36.381Z,99078.59
2023-05-20T08:51:03.701Z,99079.00
2023-05-20T08:53:30.769Z,99083.02
2023-05-20T08:56:03.363Z,99085.17
2023-05-20T08:58:31.180Z,99085.18
2023-05-20T09:00:59.106Z,99084.09
2023-05-20T09:03:26.183Z,99083.35
2023-05-20T09:05:53.913Z,99084.55
2023-05-20T09:08:26.309Z,99082.52
2023-05-20T09:10:54.541Z,99084.25
2023-05-20T09:13:23.617Z,99080.20
2023-05-20T09:15:51.159Z,99076.27
2023-05-20T09:18:18.842Z,99069.86
2023-05-20T09:20:47.770Z,99068.39
2023-05-20T09:23:14.744Z,99064.46
2023-05-20T09:25:41.748Z,99065.07
2023-05-20T09:28:08.982Z,99066.88
2023-05-20T09:30:36.045Z,99067.96
2023-05-20T09:33:05.236Z,99067.44
2023-05-20T09:35:39.344Z,99067.20
2023-05-20T09:38:08.208Z,99071.02
2023-05-20T09:40:38.091Z,99067.65
2023-05-20T09:43:08.602Z,99067.26
2023-05-20T09:45:35.897Z,99063.16
2023-05-20T09:48:03.405Z,99062.89
2023-05-20T09:50:30.538Z,99061.93
2023-05-20T09:52:58.146Z,99058.98
2023-05-20T09:55:25.283Z,99060.26
2023-05-20T09:59:08.324Z,99058.42
2023-05-20T10:01:35.327Z,99056.33
2023-05-20T10:04:02.512Z,99051.36
2023-05-20T10:06:35.555Z,99049.27
2023-05-20T10:09:10.738Z,99044.10
2023-05-20T10:11:43.858Z,99039.44
2023-05-20T10:14:37.014Z,99038.64
2023-05-20T10:17:18.881Z,99033.20
2023-05-20T10:19:45.816Z,99031.55
2023-05-20T10:22:13.982Z,99035.12
2023-05-20T10:24:42.436Z,99032.67
2023-05-20T10:27:17.399Z,99032.88
2023-05-20T10:29:57.443Z,99031.65
2023-05-20T10:32:29.059Z,99029.71
2023-05-20T10:35:05.324Z,99023.29
2023-05-20T10:37:34.202Z,99017.85
2023-05-20T10:40:20.427Z,99018.13
2023-05-20T10:42:48.253Z,99015.67
2023-05-20T10:45:29.206Z,99013.73
2023-05-20T10:47:57.587Z,99010.43
2023-05-20T10:50:36.683Z,99006.52
2023-05-20T10:53:13.350Z,99000.23
2023-05-20T10:55:52.343Z,98993.03
2023-05-20T10:58:19.962Z,98984.10
2023-05-20T11:00:50.342Z,98981.35
2023-05-20T11:03:18.704Z,98980.73
2023-05-20T11:05:47.470Z,98983.27
2023-05-20T11:10:47.571Z,98980.85
2023-05-20T11:13:17.640Z,98977.85
2023-05-20T11:15:45.044Z,98977.35
2023-05-20T11:18:13.393Z,98974.15
2023-05-20T11:20:40.556Z,98972.91
2023-05-20T11:23:12.463Z,98969.66
2023-05-20T11:25:39.468Z,98970.30
2023-05-20T11:28:14.517Z,98970.65
2023-05-20T11:30:44.732Z,98965.17
2023-05-20T11:33:14.860Z,98955.57
2023-05-20T11:35:52.258Z,98949.11
2023-05-20T11:38:20.271Z,98945.63
2023-05-20T11:40:52.450Z,98947.70
2023-05-20T11:43:19.839Z,98942.37
2023-05-20T11:45:59.420Z,98939.72
2023-05-20T11:48:26.864Z,98938.46
2023-05-20T11:50:56.499Z,98934.95
2023-05-20T11:53:24.400Z,98934.30
2023-05-20T11:55:57.244Z,98931.31
2023-05-20T11:58:37.021Z,98932.11
2023-05-20T12:01:14.095Z,98927.57
2023-05-20T12:03:50.702Z,98929.66
2023-05-20T12:06:17.962Z,98923.34
2023-05-20T12:08:47.834Z,98920.75
2023-05-20T12:11:16.436Z,98914.73
2023-05-20T12:14:04.155Z,98912.88
2023-05-20T12:16:34.012Z,98917.21
2023-05-20T12:19:01.226Z,98919.98
2023-05-20T12:21:31.635Z,98917.52
2023-05-20T12:24:07.171Z,98919.04
2023-05-20T12:26:35.626Z,98922.24
2023-05-20T12:29:03.332Z,98925.75
2023-05-20T12:31:33.128Z,98921.77
2023-05-20T12:34:01.814Z,98915.88
2023-05-20T12:36:35.524Z,98904.29
2023-05-20T12:39:06.899Z,98893.02
2023-05-20T12:41:33.955Z,98882.39
2023-05-20T12:44:01.227Z,98872.46
2023-05-20T12:46:30.935Z,98869.11
2023-05-20T12:48:57.904Z,98864.84
2023-05-20T12:51:25.162Z,98861.53
2023-05-20T12:53:52.934Z,98858.83
2023-05-20T12:56:20.135Z,98854.74
2023-05-20T12:58:47.074Z,98853.71
2023-05-20T13:01:15.269Z,98853.53
2023-05-20T13:03:42.281Z,98851.36
2023-05-20T13:06:10.570Z,98853.92
2023-05-20T13:08:37.645Z,98847.65
2023-05-20T13:11:06.317Z,98847.02
2023-05-20T13:13:33.307Z,98843.44
2023-05-20T13:16:00.727Z,98839.42
2023-05-20T13:18:28.756Z,98831.92
2023-05-20T13:20:55.645Z,98823.19
2023-05-20T13:23:29.646Z,98822.89
2023-05-20T13:25:56.802Z,98821.65
2023-05-20T13:28:23.867Z,98819.04
2023-05-20T13:30:51.114Z,98814.38
2023-05-20T13:33:18.221Z,98807.73
2023-05-20T13:35:45.416Z,98803.17
2023-05-20T13:38:12.441Z,98797.27
2023-05-20T13:40:39.423Z,98800.70
2023-05-20T13:43:09.042Z,98802.92
2023-05-20T13:45:36.696Z,98799.73
2023-05-20T13:48:04.074Z,98796.45
2023-05-20T13:50:36.908Z,98793.60
2023-05-20T13:53:03.797Z,98789.68
2023-05-20T13:55:31.642Z,98786.95
2023-05-20T14:01:38.994Z,98779.13
2023-05-20T14:04:36.596Z,98778.21
2023-05-20T14:14:19.226Z,98765.94
2023-05-20T14:16:48.522Z,98766.98
2023-05-20T14:19:16.266Z,98761.84
2023-05-20T14:21:43.253Z,98756.59
2023-05-20T14:24:10.259Z,98751.88
2023-05-20T14:26:37.970Z,98747.75
2023-05-20T14:29:04.947Z,98746.67
2023-05-20T14:31:31.977Z,98747.35
2023-05-20T14:34:01.552Z,98749.05
2023-05-20T14:36:31.374Z,98750.03
2023-05-20T14:38:58.871Z,98753.73
2023-05-20T14:41:26.125Z,98751.52
2023-05-20T14:43:53.265Z,98751.17
2023-05-20T14:46:21.370Z,98745.09
2023-05-20T14:48:49.091Z,98742.67
2023-05-20T14:51:16.640Z,98741.13
2023-05-20T14:53:43.573Z,98738.27
2023-05-20T14:56:10.553Z,98732.92
2023-05-20T14:58:37.763Z,98729.69
2023-05-20T15:01:04.886Z,98728.73
2023-05-20T15:03:32.316Z,98722.42
2023-05-20T15:05:59.286Z,98717.83
2023-05-20T15:08:30.679Z,98716.52
2023-05-20T15:11:01.656Z,98710.63
2023-05-20T15:13:28.598Z,98711.23
2023-05-20T15:15:55.724Z,98706.80
2023-05-20T15:18:22.673Z,98707.36
2023-05-20T15:20:52.657Z,98710.14
2023-05-20T15:29:48.684Z,98708.42
2023-05-20T15:32:17.728Z,98709.60
2023-05-20T15:34:46.661Z,98708.08
2023-05-20T15:37:13.623Z,98706.98
2023-05-20T15:39:40.524Z,98704.14
2023-05-20T15:42:12.978Z,98706.90
2023-05-20T15:47:31.199Z,98712.57
2023-05-20T15:50:00.310Z,98713.23
2023-05-20T15:52:27.200Z,98718.67
2023-05-20T15:54:54.243Z,98719.17
2023-05-20T15:57:22.944Z,98718.80
2023-05-20T15:59:52.327Z,98720.27
2023-05-20T16:02:19.651Z,98721.50
2023-05-20T16:04:49.518Z,98718.15
2023-05-20T16:07:17.083Z,98719.50
2023-05-20T16:09:44.139Z,98716.63
2023-05-20T16:12:13.529Z,98714.92
2023-05-20T16:14:45.438Z,98712.92
2023-05-20T16:17:12.546Z,98709.48
2023-05-20T16:19:39.533Z,98703.98
2023-05-20T16:22:09.026Z,98703.95
2023-05-20T16:24:35.962Z,98705.08
2023-05-20T16:27:03.562Z,98707.88
2023-05-20T16:29:30.600Z,98709.39
2023-05-20T16:32:15.981Z,98706.85
2023-05-20T16:34:43.018Z,98705.95
2023-05-20T16:37:10.502Z,98703.17
2023-05-20T16:39:38.038Z,98704.88
2023-05-20T16:42:05.196Z,98702.77
2023-05-20T16:44:32.149Z,98701.53
2023-05-20T16:46:59.263Z,98701.83
2023-05-20T16:49:26.339Z,98698.67
2023-05-20T16:51:53.365Z,98700.84
2023-05-20T16:54:22.643Z,98701.05
2023-05-20T16:56:50.193Z,98706.23
2023-05-20T16:59:18.839Z,98702.89
2023-05-20T17:01:46.540Z,98702.88
2023-05-20T17:04:13.652Z,98704.64
2023-05-20T17:06:40.630Z,98708.29
2023-05-20T17:09:09.936Z,98713.26
2023-05-20T17:11:36.957Z,98715.55
2023-05-20T17:14:05.354Z,98714.94
2023-05-20T17:16:32.685Z,98719.86
2023-05-20T17:18:59.799Z,98718.70
2023-05-20T17:21:27.003Z,98724.80
2023-05-20T17:23:53.904Z,98725.12
2023-05-20T17:26:20.804Z,98725.96
2023-05-20T17:28:47.799Z,98726.05
2023-05-20T17:31:15.275Z,98727.11
2023-05-20T17:33:42.298Z,98731.47
2023-05-20T17:36:09.624Z,98733.02
2023-05-20T17:38:36.611Z,98733.98
2023-05-20T17:41:03.560Z,98733.95
2023-05-20T17:43:30.606Z,98738.56
2023-05-20T17:45:57.708Z,98740.78
2023-05-20T17:48:24.645Z,98739.92
2023-05-20T17:50:53.985Z,98739.25
2023-05-20T17:53:22.100Z,98734.56
2023-05-20T17:55:49.578Z,98735.02
2023-05-20T17:58:17.035Z,98734.59
2023-05-20T18:00:44.356Z,98730.11
2023-05-20T18:03:11.720Z,98734.11
2023-05-20T18:05:38.803Z,98736.20
2023-05-20T18:08:06.105Z,98731.78
2023-05-20T18:10:33.216Z,98737.01
2023-05-20T18:13:01.314Z,98738.60
2023-05-20T18:15:28.494Z,98741.89
2023-05-20T18:17:55.865Z,98741.84
2023-05-20T18:20:22.884Z,98746.06
2023-05-20T18:22:52.439Z,98749.63
2023-05-20T18:25:19.429Z,98746.70
2023-05-20T18:27:46.576Z,98747.37
2023-05-20T18:30:24.243Z,98746.71
2023-05-20T18:32:51.872Z,98744.38
2023-05-20T18:35:19.060Z,98746.09
2023-05-20T18:37:46.953Z,98744.50
2023-05-20T18:40:14.069Z,98739.70
2023-05-20T18:42:41.509Z,98738.11
2023-05-20T18:45:09.227Z,98740.95
2023-05-20T18:47:36.382Z,98741.73
2023-05-20T18:50:05.014Z,98746.80
2023-05-20T18:52:31.975Z,98752.98
2023-05-20T18:54:59.360Z,98753.74
2023-05-20T18:57:26.607Z,98755.70
2023-05-20T18:59:54.149Z,98755.80
2023-05-20T19:02:23.879Z,98758.36
2023-05-20T19:11:04.256Z,98761.64
2023-05-20T19:13:31.602Z,98764.34
2023-05-20T19:16:04.587Z,98761.74
2023-05-20T19:18:32.529Z,98761.89
2023-05-20T19:20:59.500Z,98765.08
2023-05-20T19:23:26.474Z,98762.44
2023-05-20T19:25:53.888Z,98763.45
2023-05-20T19:28:25.411Z,98764.91
2023-05-20T19:30:53.442Z,98763.65
2023-05-20T19:33:23.294Z,98764.52
2023-05-20T19:35:52.231Z,98765.16
2023-05-20T19:38:19.955Z,98761.98
2023-05-20T19:40:48.650Z,98758.20
2023-05-20T19:43:15.733Z,98758.84
2023-05-20T19:45:43.329Z,98758.56
2023-05-20T19:48:10.433Z,98760.80
2023-05-20T19:50:38.042Z,98758.62
2023-05-20T19:53:09.674Z,98760.48
2023-05-20T19:55:37.535Z,98757.31
2023-05-20T19:58:05.215Z,98759.70
2023-05-20T20:00:32.142Z,98761.29
2023-05-20T20:02:59.458Z,98761.70
2023-05-20T20:05:27.057Z,98768.08
2023-05-20T20:07:56.300Z,98767.11
2023-05-20T20:10:23.664Z,98765.85
2023-05-20T20:12:53.845Z,98765.50
2023-05-20T20:15:24.276Z,98766.21
2023-05-20T20:17:53.434Z,98765.13
2023-05-20T20:20:24.871Z,98764.10
2023-05-20T20:22:52.965Z,98767.14
2023-05-20T20:25:20.654Z,98765.94
2023-05-20T20:27:57.585Z,98765.49
2023-05-20T20:30:26.828Z,98767.44
2023-05-20T20:33:01.593Z,98769.48
2023-05-20T20:35:31.036Z,98769.73
2023-05-20T20:37:58.003Z,98773.15
2023-05-20T20:40:28.468Z,98774.44
2023-05-20T20:43:00.964Z,98775.08
2023-05-20T20:45:29.614Z,98776.88
2023-05-20T20:47:58.145Z,98776.36
2023-05-20T20:50:26.068Z,98775.55
2023-05-20T20:52:52.989Z,98775.92
2023-05-20T20:55:21.344Z,98773.56
2023-05-20T20:57:48.254Z,98772.77
2023-05-20T21:00:19.190Z,98768.88
2023-05-20T21:02:46.207Z,98770.05
2023-05-20T21:05:16.841Z,98767.90
2023-05-20T21:07:46.210Z,98764.27
2023-05-20T21:10:13.303Z,98766.52
2023-05-20T21:12:40.932Z,98767.67
2023-05-20T21:15:08.550Z,98768.13
2023-05-20T21:17:35.991Z,98770.08
2023-05-20T21:20:07.907Z,98767.23
2023-05-20T21:22:35.094Z,98761.80
2023-05-20T21:25:02.205Z,98762.64
2023-05-20T21:27:29.404Z,98762.48
2023-05-20T21:29:58.701Z,98762.07
2023-05-20T21:32:30.848Z,98759.69
2023-05-20T21:34:58.426Z,98764.28
2023-05-20T21:37:26.569Z,98765.48
2023-05-20T21:39:59.594Z,98765.63
2023-05-20T21:42:26.572Z,98768.98
2023-05-20T21:44:56.016Z,98766.36
2023-05-20T21:47:22.914Z,98772.39
2023-05-20T21:49:49.865Z,98769.83
2023-05-20T21:52:16.738Z,98767.99
2023-05-20T21:54:43.685Z,98772.44
2023-05-20T21:57:10.616Z,98770.06
2023-05-20T21:59:37.638Z,98770.02
2023-05-20T22:02:04.839Z,98771.30
2023-05-20T22:04:33.499Z,98769.31
2023-05-20T22:07:02.060Z,98766.45
2023-05-20T22:09:31.419Z,98766.45
2023-05-20T22:11:59.926Z,98766.00
2023-05-20T22:14:27.376Z,98767.69
2023-05-20T22:16:54.560Z,98770.20
2023-05-20T22:19:21.883Z,98768.27
2023-05-20T22:21:50.555Z,98768.20
2023-05-20T22:24:18.372Z,98765.38
2023-05-20T22:26:46.442Z,98762.59
2023-05-20T22:29:13.352Z,98759.45
2023-05-20T22:31:41.172Z,98762.48
2023-05-20T22:34:15.796Z,98764.92
2023-05-20T22:36:45.483Z,98767.92
2023-05-20T22:39:13.596Z,98775.20
2023-05-20T22:41:42.049Z,98776.61
2023-05-20T22:44:09.215Z,98775.88
2023-05-20T22:46:36.165Z,98777.11
2023-05-20T22:49:03.376Z,98775.94
2023-05-20T22:51:34.583Z,98784.45
2023-05-20T22:54:01.536Z,98780.61
2023-05-20T22:56:29.821Z,98783.23
2023-05-20T22:58:56.749Z,98788.35
2023-05-20T23:01:24.231Z,98783.94
2023-05-20T23:03:54.534Z,98778.32
2023-05-20T23:06:22.693Z,98780.35
2023-05-20T23:08:52.634Z,98784.63
2023-05-20T23:11:20.652Z,98780.52
2023-05-20T23:13:47.755Z,98778.02
2023-05-20T23:16:14.774Z,98774.14
2023-05-20T23:18:41.791Z,98773.95
2023-05-20T23:21:08.842Z,98774.23
2023-05-20T23:23:35.763Z,98771.45
2023-05-20T23:26:03.206Z,98772.61
2023-05-20T23:28:30.312Z,98774.06
2023-05-20T23:30:57.365Z,98775.27
2023-05-20T23:33:27.292Z,98775.70
2023-05-20T23:35:54.384Z,98773.04
2023-05-20T23:38:26.218Z,98776.09
2023-05-20T23:40:53.227Z,98779.33
2023-05-20T23:43:20.331Z,98778.89
2023-05-20T23:45:47.468Z,98778.35
2023-05-20T23:48:14.318Z,98778.86
2023-05-20T23:50:41.343Z,98772.84
2023-05-20T23:53:08.422Z,98772.33
2023-05-20T23:55:39.190Z,98772.30
2023-05-20T23:58:07.763Z,98772.15
